Time;durP1;ratioP1;P1;durP2;ratioP2;P2;SDS_P1;SDS_P2;PMS_P1;PMS_P2;Temp;Humidity;BMP_temperature;BMP_pressure;BME280_temperature;BME280_humidity;BME280_pressure;Samples;Min_cycle;Max_cycle;Signal;HPM_P1;HPM_P2
2022/10/01 00:00:19;;;;;;;0.80;0.73;;;8.60;99.90;;;;;;4392190;32;20061;-81
2022/10/01 00:02:45;;;;;;;0.90;0.62;;;8.60;99.90;;;;;;4382460;32;20105;-79
2022/10/01 00:05:11;;;;;;;0.52;0.52;;;8.60;99.90;;;;;;4358230;32;20884;-78
2022/10/01 00:07:38;;;;;;;0.77;0.77;;;8.70;99.90;;;;;;4378979;32;20075;-81
2022/10/01 00:10:05;;;;;;;0.90;0.90;;;8.70;99.90;;;;;;4392909;32;20415;-81
2022/10/01 00:12:31;;;;;;;0.52;0.52;;;8.70;99.90;;;;;;4391063;32;20086;-77
2022/10/01 00:14:56;;;;;;;0.40;0.40;;;8.70;99.90;;;;;;4396528;32;20074;-81
2022/10/01 00:17:22;;;;;;;0.75;0.75;;;8.70;99.90;;;;;;4392632;32;20078;-81
2022/10/01 00:19:48;;;;;;;0.30;0.30;;;8.70;99.90;;;;;;4393949;32;20073;-81
2022/10/01 00:22:13;;;;;;;1.45;0.98;;;8.70;99.90;;;;;;4392514;32;20070;-82
2022/10/01 00:24:39;;;;;;;0.60;0.60;;;8.70;99.90;;;;;;4394467;32;20177;-81
2022/10/01 00:27:05;;;;;;;0.60;0.60;;;8.80;99.90;;;;;;4391427;32;20557;-81
2022/10/01 00:29:31;;;;;;;0.62;0.62;;;8.80;99.90;;;;;;4391843;32;20433;-80
2022/10/01 00:31:57;;;;;;;0.68;0.68;;;8.80;99.90;;;;;;4389325;32;20533;-79
2022/10/01 00:34:23;;;;;;;5.55;0.85;;;8.90;99.90;;;;;;4364527;32;20086;-78
2022/10/01 00:36:48;;;;;;;1.05;0.95;;;8.90;99.90;;;;;;4367074;32;20102;-81
2022/10/01 00:39:14;;;;;;;0.60;0.60;;;8.90;99.90;;;;;;4392481;32;20066;-81
2022/10/01 00:41:40;;;;;;;0.47;0.47;;;8.90;99.90;;;;;;4394352;32;20158;-81
2022/10/01 00:44:31;;;;;;;0.55;0.55;;;8.90;99.90;;;;;;4390553;32;20483;-80
2022/10/01 00:47:02;;;;;;;15.38;2.58;;;8.80;99.90;;;;;;4382928;32;20106;-78
2022/10/01 00:49:32;;;;;;;0.45;0.45;;;8.80;99.90;;;;;;4391733;32;20137;-81
2022/10/01 00:52:02;;;;;;;0.95;0.93;;;8.70;99.90;;;;;;4390074;32;20538;-81
2022/10/01 00:54:35;;;;;;;0.95;0.88;;;8.70;99.90;;;;;;4391358;32;20083;-80
2022/10/01 00:57:03;;;;;;;0.40;0.40;;;8.60;99.90;;;;;;4394359;32;20144;-81
2022/10/01 00:59:30;;;;;;;0.52;0.52;;;8.80;99.90;;;;;;4394876;32;20097;-81
2022/10/01 01:01:55;;;;;;;0.40;0.40;;;9.00;99.90;;;;;;4394375;32;20641;-77
2022/10/01 01:04:21;;;;;;;0.95;0.88;;;8.90;99.90;;;;;;4366979;32;20098;-78
2022/10/01 01:06:54;;;;;;;0.70;0.70;;;8.80;99.90;;;;;;4374669;32;20058;-81
2022/10/01 01:09:21;;;;;;;0.50;0.50;;;8.70;99.90;;;;;;4393683;32;20097;-80
2022/10/01 01:12:11;;;;;;;0.60;0.60;;;8.70;99.90;;;;;;4396588;32;20078;-81
2022/10/01 01:15:03;;;;;;;2.72;0.88;;;8.70;99.90;;;;;;4382178;32;20082;-80
2022/10/01 01:17:40;;;;;;;1.25;1.15;;;8.70;99.90;;;;;;4383442;32;20082;-78
2022/10/01 01:20:25;;;;;;;0.50;0.50;;;8.70;99.90;;;;;;4394812;32;20505;-80
2022/10/01 01:23:07;;;;;;;0.40;0.40;;;8.90;99.90;;;;;;4396121;32;20077;-79
2022/10/01 01:25:58;;;;;;;2.53;0.82;;;9.00;99.90;;;;;;4391813;32;20074;-79
2022/10/01 01:28:30;;;;;;;;;;;9.00;99.90;;;;;;4394457;32;20118;-82
2022/10/01 01:31:03;;;;;;;0.30;0.30;;;9.00;99.90;;;;;;4393547;32;19960;-78
2022/10/01 01:33:33;;;;;;;2.53;1.27;;;8.80;99.90;;;;;;4374327;32;20802;-77
2022/10/01 01:36:04;;;;;;;0.50;0.50;;;8.90;99.90;;;;;;4363193;32;20798;-79
2022/10/01 01:38:37;;;;;;;0.40;0.40;;;8.80;99.90;;;;;;4390606;32;20154;-78
2022/10/01 01:41:05;;;;;;;0.57;0.57;;;8.80;99.90;;;;;;4391638;32;20050;-78
2022/10/01 01:43:37;;;;;;;0.70;0.70;;;8.90;99.90;;;;;;4394314;32;20062;-78
2022/10/01 01:46:06;;;;;;;0.40;0.40;;;8.90;99.90;;;;;;4394676;32;20061;-79
2022/10/01 01:48:35;;;;;;;0.40;0.40;;;8.80;99.90;;;;;;4391002;32;20078;-78
2022/10/01 01:51:06;;;;;;;2.58;1.62;;;8.80;99.90;;;;;;4392972;32;20094;-78
2022/10/01 01:53:33;;;;;;;1.25;0.73;;;8.80;99.90;;;;;;4391272;32;20065;-79
2022/10/01 01:55:59;;;;;;;1.50;0.82;;;8.80;99.90;;;;;;4392906;32;20094;-79
2022/10/01 01:58:26;;;;;;;2.25;1.08;;;8.70;99.90;;;;;;4388015;32;20129;-79
2022/10/01 02:00:52;;;;;;;0.70;0.60;;;8.70;99.90;;;;;;4387662;32;20063;-77
2022/10/01 02:03:21;;;;;;;1.83;1.00;;;8.70;99.90;;;;;;4372452;32;20062;-79
2022/10/01 02:06:05;;;;;;;0.80;0.55;;;8.60;99.90;;;;;;4355526;32;20089;-75
2022/10/01 02:08:39;;;;;;;0.40;0.40;;;8.60;99.90;;;;;;4387104;32;20140;-79
2022/10/01 02:11:27;;;;;;;0.60;0.60;;;8.60;99.90;;;;;;4389993;32;20082;-79
2022/10/01 02:14:02;;;;;;;0.45;0.45;;;8.70;99.90;;;;;;4388651;32;20581;-78
2022/10/01 02:16:51;;;;;;;0.77;0.57;;;8.70;99.90;;;;;;4388766;32;20098;-79
2022/10/01 02:19:29;;;;;;;0.77;0.70;;;8.70;99.90;;;;;;4378781;32;20083;-79
2022/10/01 02:21:59;;;;;;;3.17;1.23;;;8.70;99.90;;;;;;4388185;32;20115;-78
2022/10/01 02:24:37;;;;;;;0.52;0.52;;;8.80;99.90;;;;;;4387856;32;20583;-79
2022/10/01 02:27:09;;;;;;;0.50;0.50;;;8.80;99.90;;;;;;4389165;32;20110;-79
2022/10/01 02:29:36;;;;;;;3.50;0.60;;;8.70;99.90;;;;;;4390660;32;20506;-78
2022/10/01 02:32:02;;;;;;;1.10;0.85;;;8.70;99.90;;;;;;4385928;32;20134;-78
2022/10/01 02:34:29;;;;;;;0.52;0.52;;;8.70;99.90;;;;;;4358949;32;20448;-75
2022/10/01 02:36:59;;;;;;;12.27;1.08;;;8.80;99.90;;;;;;4367956;32;20205;-78
2022/10/01 02:39:28;;;;;;;0.80;0.80;;;8.80;99.90;;;;;;4388563;32;20517;-79
2022/10/01 02:41:55;;;;;;;2.22;1.02;;;8.80;99.90;;;;;;4388087;32;20090;-79
2022/10/01 02:44:29;;;;;;;2.17;1.05;;;9.00;99.90;;;;;;4388741;32;20061;-79
2022/10/01 02:47:04;;;;;;;0.62;0.62;;;8.80;99.90;;;;;;4387995;32;20091;-79
2022/10/01 02:49:30;;;;;;;1.23;1.10;;;8.80;99.90;;;;;;4388424;32;20086;-78
2022/10/01 02:52:07;;;;;;;0.68;0.68;;;8.90;99.90;;;;;;4385593;32;20082;-77
2022/10/01 02:54:39;;;;;;;0.55;0.55;;;8.90;99.90;;;;;;4389924;32;20538;-79
2022/10/01 02:57:36;;;;;;;1.98;1.40;;;8.80;99.90;;;;;;4389912;32;20482;-79
2022/10/01 02:59:50;;;;;;;10.38;0.73;;;8.80;99.90;;;;;;4382321;32;20559;-81
2022/10/01 03:02:17;;;;;;;0.60;0.60;;;8.80;99.90;;;;;;4387227;32;20517;-77
2022/10/01 03:04:46;;;;;;;0.57;0.57;;;8.80;99.90;;;;;;4365498;32;20126;-77
2022/10/01 03:07:12;;;;;;;9.30;1.20;;;8.80;99.90;;;;;;4377916;32;20153;-78
2022/10/01 03:09:37;;;;;;;0.82;0.80;;;8.80;99.90;;;;;;4394549;32;20133;-79
2022/10/01 03:12:03;;;;;;;0.55;0.55;;;8.70;99.90;;;;;;4391982;32;20085;-79
2022/10/01 03:14:28;;;;;;;0.88;0.70;;;8.80;99.90;;;;;;4392130;32;20122;-78
2022/10/01 03:16:54;;;;;;;0.43;0.43;;;8.90;99.90;;;;;;4394980;32;20133;-80
2022/10/01 03:19:20;;;;;;;0.50;0.50;;;9.00;99.90;;;;;;4395033;32;20474;-79
2022/10/01 03:21:46;;;;;;;11.95;0.95;;;8.90;99.90;;;;;;4393509;32;20165;-79
2022/10/01 03:24:11;;;;;;;2.30;0.73;;;8.90;99.90;;;;;;4390774;32;20125;-79
2022/10/01 03:26:37;;;;;;;0.68;0.68;;;8.90;99.90;;;;;;4393470;32;20423;-79
2022/10/01 03:29:03;;;;;;;0.70;0.70;;;8.90;99.90;;;;;;4393474;32;20065;-79
2022/10/01 03:31:28;;;;;;;0.60;0.60;;;8.90;99.90;;;;;;4391871;32;20184;-80
2022/10/01 03:33:56;;;;;;;3.10;1.42;;;8.90;99.90;;;;;;4371063;32;20474;-77
2022/10/01 03:36:23;;;;;;;1.65;0.85;;;8.90;99.90;;;;;;4365919;32;20090;-78
2022/10/01 03:38:48;;;;;;;3.20;1.00;;;8.80;99.90;;;;;;4395224;32;20081;-78
2022/10/01 03:41:14;;;;;;;1.23;0.85;;;8.80;99.90;;;;;;4393903;32;20082;-80
2022/10/01 03:43:39;;;;;;;3.53;0.68;;;8.90;99.90;;;;;;4392237;32;20093;-79
2022/10/01 03:46:05;;;;;;;1.48;0.75;;;9.00;99.90;;;;;;4394594;32;20431;-78
2022/10/01 03:48:30;;;;;;;0.68;0.68;;;9.00;99.90;;;;;;4389650;32;20159;-79
2022/10/01 03:50:58;;;;;;;0.65;0.65;;;9.10;99.90;;;;;;4390964;32;20070;-80
2022/10/01 03:53:26;;;;;;;2.05;0.90;;;9.00;99.90;;;;;;4391966;32;20069;-79
2022/10/01 03:55:52;;;;;;;0.77;0.77;;;9.00;99.90;;;;;;4391922;32;20090;-78
2022/10/01 03:58:17;;;;;;;0.47;0.47;;;9.00;99.90;;;;;;4390998;32;20078;-79
2022/10/01 04:00:45;;;;;;;0.43;0.43;;;9.00;99.90;;;;;;4393944;32;20526;-79
2022/10/01 04:03:12;;;;;;;0.65;0.65;;;8.90;99.90;;;;;;4377678;32;20086;-79
2022/10/01 04:05:38;;;;;;;0.40;0.40;;;9.00;99.90;;;;;;4365087;32;20082;-76
2022/10/01 04:08:03;;;;;;;2.55;1.35;;;9.00;99.90;;;;;;4389845;32;20078;-79
2022/10/01 04:10:30;;;;;;;1.00;1.00;;;9.00;99.90;;;;;;4393118;32;20090;-79
2022/10/01 04:12:55;;;;;;;0.45;0.45;;;9.00;99.90;;;;;;4392195;32;20534;-78
2022/10/01 04:15:22;;;;;;;0.60;0.60;;;9.10;99.90;;;;;;4390806;32;20106;-79
2022/10/01 04:17:48;;;;;;;1.85;1.25;;;9.10;99.90;;;;;;4392141;32;20185;-79
2022/10/01 04:20:14;;;;;;;1.33;1.08;;;9.10;99.90;;;;;;4392983;32;20078;-78
2022/10/01 04:22:41;;;;;;;0.57;0.57;;;9.00;99.90;;;;;;4379649;32;20094;-79
2022/10/01 04:25:09;;;;;;;1.60;0.80;;;9.00;99.90;;;;;;4391731;32;20118;-79
2022/10/01 04:27:35;;;;;;;0.75;0.75;;;8.80;99.90;;;;;;4395246;32;20541;-79
2022/10/01 04:30:01;;;;;;;0.52;0.52;;;8.90;99.90;;;;;;4390413;32;20565;-80
2022/10/01 04:32:26;;;;;;;0.77;0.77;;;8.80;99.90;;;;;;4389970;32;20085;-76
2022/10/01 04:34:52;;;;;;;2.03;1.15;;;8.80;99.90;;;;;;4366693;32;20094;-76
2022/10/01 04:37:19;;;;;;;0.30;0.30;;;8.90;99.90;;;;;;4381833;32;20079;-80
2022/10/01 04:39:44;;;;;;;0.85;0.85;;;8.90;99.90;;;;;;4392328;32;20126;-79
2022/10/01 04:42:12;;;;;;;0.50;0.50;;;8.90;99.90;;;;;;4393638;32;20526;-80
2022/10/01 04:44:38;;;;;;;0.68;0.68;;;9.00;99.90;;;;;;4392165;32;20070;-79
2022/10/01 04:47:03;;;;;;;0.50;0.50;;;8.90;99.90;;;;;;4391721;32;20069;-79
2022/10/01 04:49:30;;;;;;;1.45;0.75;;;8.90;99.90;;;;;;4394120;32;20073;-80
2022/10/01 04:51:56;;;;;;;1.37;1.27;;;8.90;99.90;;;;;;4395101;32;20066;-79
2022/10/01 04:54:22;;;;;;;1.10;0.88;;;8.90;99.90;;;;;;4395098;32;20090;-79
2022/10/01 04:56:48;;;;;;;1.02;0.93;;;9.00;99.90;;;;;;4397387;32;20120;-79
2022/10/01 04:59:13;;;;;;;0.40;0.40;;;9.00;99.90;;;;;;4394214;32;20168;-78
2022/10/01 05:01:40;;;;;;;0.50;0.50;;;8.90;99.90;;;;;;4393361;32;20074;-78
2022/10/01 05:04:07;;;;;;;0.52;0.52;;;8.90;99.90;;;;;;4375560;32;20133;-79
2022/10/01 05:06:33;;;;;;;2.40;1.20;;;9.00;99.90;;;;;;4372184;32;20098;-79
2022/10/01 05:08:59;;;;;;;0.40;0.40;;;9.10;99.90;;;;;;4394263;32;20089;-79
2022/10/01 05:11:26;;;;;;;3.12;1.05;;;9.00;99.90;;;;;;4392058;32;20063;-79
2022/10/01 05:13:51;;;;;;;0.93;0.80;;;9.00;99.90;;;;;;4394883;32;20513;-78
2022/10/01 05:16:18;;;;;;;0.65;0.65;;;9.00;99.90;;;;;;4393348;32;20078;-78
2022/10/01 05:18:43;;;;;;;3.50;1.08;;;9.00;99.90;;;;;;4393685;32;20197;-79
2022/10/01 05:21:10;;;;;;;1.62;0.80;;;9.00;99.90;;;;;;4393429;32;20104;-79
2022/10/01 05:23:36;;;;;;;0.60;0.60;;;9.00;99.90;;;;;;4394070;32;20486;-82
2022/10/01 05:26:04;;;;;;;1.17;0.55;;;9.10;99.90;;;;;;4390996;32;20145;-78
2022/10/01 05:28:30;;;;;;;0.43;0.43;;;9.00;99.90;;;;;;4393378;32;20085;-80
2022/10/01 05:31:00;;;;;;;0.40;0.40;;;9.00;99.90;;;;;;4393825;32;20533;-78
2022/10/01 05:33:26;;;;;;;0.50;0.50;;;9.00;99.90;;;;;;4379124;32;20521;-77
2022/10/01 05:35:52;;;;;;;0.50;0.50;;;9.10;99.90;;;;;;4368947;32;20107;-77
2022/10/01 05:38:18;;;;;;;0.47;0.47;;;9.10;99.90;;;;;;4391494;32;20089;-81
2022/10/01 05:40:46;;;;;;;0.37;0.37;;;9.10;99.90;;;;;;4393163;32;20102;-81
2022/10/01 05:43:11;;;;;;;0.50;0.50;;;9.20;99.90;;;;;;4395345;32;20486;-81
2022/10/01 05:45:37;;;;;;;0.60;0.60;;;9.20;99.90;;;;;;4393460;32;20082;-79
2022/10/01 05:48:06;;;;;;;0.55;0.55;;;9.20;99.90;;;;;;4393615;32;20719;-79
2022/10/01 05:50:38;;;;;;;2.45;1.70;;;9.20;99.90;;;;;;4392975;32;20149;-79
2022/10/01 05:53:05;;;;;;;0.50;0.50;;;9.20;99.90;;;;;;4395640;32;20081;-79
2022/10/01 05:55:32;;;;;;;0.30;0.30;;;9.30;99.90;;;;;;4391358;32;20091;-81
2022/10/01 05:58:00;;;;;;;0.57;0.57;;;9.30;99.90;;;;;;4389972;32;20066;-81
2022/10/01 06:00:28;;;;;;;0.50;0.50;;;9.30;99.90;;;;;;4385455;32;20857;-79
2022/10/01 06:02:55;;;;;;;0.32;0.32;;;9.40;99.90;;;;;;4374597;32;20252;-79
2022/10/01 06:05:21;;;;;;;0.55;0.55;;;9.40;99.90;;;;;;4369574;32;20087;-78
2022/10/01 06:07:48;;;;;;;33.95;0.90;;;9.50;99.90;;;;;;4380236;32;20101;-81
2022/10/01 06:10:16;;;;;;;0.43;0.43;;;9.50;99.90;;;;;;4383621;32;20148;-79
2022/10/01 06:12:42;;;;;;;0.40;0.40;;;9.50;99.90;;;;;;4384142;32;20086;-82
2022/10/01 06:15:09;;;;;;;0.60;0.60;;;9.60;99.90;;;;;;4385632;32;20498;-81
2022/10/01 06:17:35;;;;;;;0.30;0.30;;;9.60;99.90;;;;;;4387052;32;20148;-80
2022/10/01 06:20:00;;;;;;;0.93;0.90;;;9.60;99.90;;;;;;4383405;32;20232;-79
2022/10/01 06:22:27;;;;;;;0.55;0.55;;;9.70;99.90;;;;;;4385371;32;20134;-80
2022/10/01 06:24:54;;;;;;;0.70;0.70;;;9.70;99.90;;;;;;4384562;32;20094;-80
2022/10/01 06:27:19;;;;;;;0.55;0.55;;;9.80;99.90;;;;;;4386758;32;20106;-81
2022/10/01 06:29:45;;;;;;;0.50;0.50;;;9.80;99.90;;;;;;4385113;32;20062;-77
2022/10/01 06:32:17;;;;;;;0.60;0.60;;;9.80;99.90;;;;;;4383596;32;20433;-79
2022/10/01 06:34:42;;;;;;;0.60;0.60;;;9.80;99.90;;;;;;4362356;32;20509;-77
2022/10/01 06:37:08;;;;;;;0.30;0.30;;;9.90;99.90;;;;;;4373341;32;20086;-79
2022/10/01 06:39:33;;;;;;;0.47;0.47;;;9.90;99.90;;;;;;4382818;32;20584;-79
2022/10/01 06:41:59;;;;;;;0.50;0.50;;;10.00;99.90;;;;;;4386513;32;20083;-80
2022/10/01 06:44:24;;;;;;;0.47;0.45;;;10.00;99.90;;;;;;4386886;32;20543;-78
2022/10/01 06:46:50;;;;;;;3.75;1.45;;;9.90;99.90;;;;;;4384943;32;20073;-79
2022/10/01 06:49:19;;;;;;;1.05;0.80;;;9.90;99.90;;;;;;4388200;32;20070;-79
2022/10/01 06:52:48;;;;;;;0.50;0.50;;;10.00;99.90;;;;;;4387334;32;20067;-78
2022/10/01 06:54:30;;;;;;;1.95;0.80;;;9.90;99.90;;;;;;4370717;32;20071;-79
2022/10/01 06:56:55;;;;;;;1.30;0.93;;;10.00;99.90;;;;;;4381895;32;21389;-79
2022/10/01 06:59:21;;;;;;;1.17;0.68;;;10.10;99.90;;;;;;4381261;32;20070;-80
2022/10/01 07:01:49;;;;;;;2.55;0.77;;;10.10;99.90;;;;;;4380982;32;20400;-77
2022/10/01 07:04:14;;;;;;;1.05;0.52;;;10.20;99.90;;;;;;4364718;32;20334;-80
2022/10/01 07:06:40;;;;;;;0.40;0.40;;;10.30;99.90;;;;;;4364668;32;20083;-79
2022/10/01 07:09:05;;;;;;;0.47;0.47;;;10.30;99.90;;;;;;4380349;32;20073;-79
2022/10/01 07:11:31;;;;;;;0.82;0.80;;;10.20;99.90;;;;;;4381540;32;20091;-78
2022/10/01 07:13:56;;;;;;;4.32;1.08;;;10.20;99.90;;;;;;4380964;32;20082;-79
2022/10/01 07:16:24;;;;;;;0.45;0.45;;;10.30;99.90;;;;;;4379893;32;20074;-79
2022/10/01 07:18:50;;;;;;;6.35;2.62;;;10.30;99.90;;;;;;4376575;32;20484;-79
2022/10/01 07:21:17;;;;;;;0.37;0.37;;;10.40;99.90;;;;;;4379722;32;20103;-78
2022/10/01 07:23:42;;;;;;;0.35;0.35;;;10.40;99.90;;;;;;4382192;32;20070;-79
2022/10/01 07:26:09;;;;;;;0.60;0.60;;;10.50;99.90;;;;;;4380350;32;20098;-79
2022/10/01 07:28:34;;;;;;;0.40;0.40;;;10.50;99.90;;;;;;4379020;32;20075;-80
2022/10/01 07:31:05;;;;;;;0.60;0.60;;;10.50;99.90;;;;;;4378534;32;20086;-79
2022/10/01 07:33:31;;;;;;;0.30;0.30;;;10.50;99.90;;;;;;4364086;32;20082;-76
2022/10/01 07:36:03;;;;;;;0.62;0.62;;;10.50;99.90;;;;;;4357103;32;20075;-78
2022/10/01 07:38:29;;;;;;;0.30;0.30;;;10.50;99.90;;;;;;4376367;32;20066;-80
2022/10/01 07:40:54;;;;;;;0.57;0.57;;;10.60;99.90;;;;;;4378671;32;20083;-78
2022/10/01 07:43:20;;;;;;;0.98;0.68;;;10.70;99.90;;;;;;4380283;32;20081;-81
2022/10/01 07:45:46;;;;;;;0.40;0.40;;;10.80;99.90;;;;;;4376871;32;20518;-80
2022/10/01 07:48:13;;;;;;;0.30;0.30;;;10.90;99.90;;;;;;4379590;32;20149;-81
2022/10/01 07:50:42;;;;;;;1.00;0.75;;;10.90;99.90;;;;;;4375541;32;20372;-80
2022/10/01 07:53:07;;;;;;;0.65;0.65;;;10.90;99.90;;;;;;4377432;32;20151;-80
2022/10/01 07:55:33;;;;;;;1.55;0.60;;;11.00;99.90;;;;;;4377705;32;20089;-78
2022/10/01 07:58:00;;;;;;;1.58;0.80;;;11.00;99.90;;;;;;4387288;32;20070;-80
2022/10/01 08:00:27;;;;;;;19.83;3.25;;;11.10;99.90;;;;;;4391587;32;20138;-79
2022/10/01 08:02:54;;;;;;;0.43;0.43;;;11.20;99.90;;;;;;4376636;32;20090;-76
2022/10/01 08:05:23;;;;;;;2.33;0.60;;;11.20;99.90;;;;;;4357030;32;20103;-77
2022/10/01 08:07:51;;;;;;;0.40;0.40;;;11.20;99.90;;;;;;4382097;32;20089;-79
2022/10/01 08:10:18;;;;;;;0.30;0.30;;;11.30;99.90;;;;;;4389383;32;20070;-79
2022/10/01 08:12:44;;;;;;;0.98;0.70;;;11.20;99.90;;;;;;4387322;32;20070;-80
2022/10/01 08:15:13;;;;;;;0.40;0.40;;;11.30;99.90;;;;;;4389405;32;20177;-79
2022/10/01 08:17:39;;;;;;;0.62;0.62;;;11.30;99.90;;;;;;4390252;32;20085;-80
2022/10/01 08:20:06;;;;;;;5.35;0.98;;;11.40;99.90;;;;;;4392256;32;20546;-80
2022/10/01 08:22:33;;;;;;;1.75;0.65;;;11.50;99.90;;;;;;4388110;32;20102;-79
2022/10/01 08:24:59;;;;;;;0.57;0.57;;;11.50;99.90;;;;;;4389087;32;20133;-79
2022/10/01 08:27:27;;;;;;;0.57;0.57;;;11.50;99.90;;;;;;4389412;32;20061;-81
2022/10/01 08:29:53;;;;;;;0.37;0.37;;;11.40;99.90;;;;;;4393741;32;20066;-80
2022/10/01 08:32:20;;;;;;;0.60;0.57;;;11.60;99.90;;;;;;4382716;32;180906;-77
2022/10/01 08:34:46;;;;;;;1.67;0.52;;;11.60;99.90;;;;;;4369275;32;20098;-75
2022/10/01 08:37:13;;;;;;;1.55;0.73;;;11.60;99.90;;;;;;4375785;32;20078;-81
2022/10/01 08:39:38;;;;;;;0.25;0.25;;;11.60;99.90;;;;;;4391880;32;20498;-81
2022/10/01 08:42:18;;;;;;;0.30;0.30;;;11.70;99.90;;;;;;4379353;32;20098;-81
2022/10/01 08:44:45;;;;;;;0.70;0.70;;;11.80;99.90;;;;;;4391629;32;20533;-79
2022/10/01 08:47:21;;;;;;;1.75;0.88;;;11.80;99.90;;;;;;4388848;32;20168;-80
2022/10/01 08:49:52;;;;;;;0.65;0.62;;;11.90;99.90;;;;;;4389350;32;20214;-80
2022/10/01 08:52:39;;;;;;;4.78;1.45;;;12.00;99.90;;;;;;4390258;32;20079;-79
2022/10/01 08:55:12;;;;;;;0.57;0.50;;;12.10;99.90;;;;;;4380070;32;20082;-79
2022/10/01 08:57:45;;;;;;;0.60;0.60;;;12.10;99.90;;;;;;4392729;32;20110;-80
2022/10/01 09:00:13;;;;;;;0.40;0.40;;;12.10;99.90;;;;;;4394696;32;20873;-80
2022/10/01 09:02:42;;;;;;;1.52;1.20;;;12.20;99.90;;;;;;4388766;32;20082;-79
2022/10/01 09:05:43;;;;;;;1.17;0.50;;;12.20;99.90;;;;;;4375241;32;20086;-77
2022/10/01 09:08:48;;;;;;;0.30;0.30;;;12.30;99.90;;;;;;4376897;32;20554;-80
2022/10/01 09:11:25;;;;;;;0.40;0.40;;;12.40;99.90;;;;;;4383835;32;20078;-80
2022/10/01 09:14:10;;;;;;;0.40;0.40;;;12.50;99.90;;;;;;4394705;32;20497;-79
2022/10/01 09:17:03;;;;;;;2.37;1.40;;;12.60;99.90;;;;;;4396361;32;20130;-80
2022/10/01 09:19:45;;;;;;;0.70;0.70;;;12.70;99.90;;;;;;4382668;32;20107;-80
2022/10/01 09:22:25;;;;;;;1.30;0.77;;;12.80;99.90;;;;;;4396089;32;20105;-80
2022/10/01 09:25:02;;;;;;;0.30;0.30;;;13.00;99.90;;;;;;4392827;32;20082;-80
2022/10/01 09:27:30;;;;;;;0.50;0.50;;;13.00;99.90;;;;;;4394397;32;20090;-79
2022/10/01 09:30:00;;;;;;;0.60;0.60;;;13.10;99.90;;;;;;4378195;32;20078;-79
2022/10/01 09:32:29;;;;;;;0.62;0.62;;;13.20;99.90;;;;;;4392078;32;20105;-78
2022/10/01 09:34:59;;;;;;;0.40;0.40;;;13.20;99.90;;;;;;4375535;32;20588;-78
2022/10/01 09:37:40;;;;;;;0.50;0.50;;;13.10;99.90;;;;;;4384244;32;20098;-79
2022/10/01 09:40:13;;;;;;;;;;;13.00;99.90;;;;;;4392949;32;20077;-78
2022/10/01 09:42:39;;;;;;;0.35;0.35;;;12.90;99.90;;;;;;4390888;32;19962;-80
2022/10/01 09:45:05;;;;;;;0.65;0.60;;;12.80;99.90;;;;;;4396029;32;20109;-79
2022/10/01 09:47:32;;;;;;;0.40;0.40;;;12.70;99.90;;;;;;4395359;32;20066;-81
2022/10/01 09:50:03;;;;;;;0.32;0.32;;;12.70;99.90;;;;;;4378698;32;20121;-81
2022/10/01 09:52:33;;;;;;;0.30;0.30;;;12.70;99.90;;;;;;4396487;32;20424;-82
2022/10/01 09:55:10;;;;;;;0.35;0.35;;;12.60;99.90;;;;;;4393278;32;20658;-79
2022/10/01 09:57:39;;;;;;;0.28;0.28;;;12.60;99.90;;;;;;4392800;32;20086;-81
2022/10/01 10:00:17;;;;;;;0.80;0.50;;;12.50;99.90;;;;;;4389299;32;20078;-81
2022/10/01 10:02:46;;;;;;;0.37;0.37;;;12.50;99.90;;;;;;4382513;32;20062;-77
2022/10/01 10:05:17;;;;;;;0.20;0.20;;;12.40;99.90;;;;;;4373969;32;20663;-80
2022/10/01 10:07:46;;;;;;;0.30;0.30;;;12.30;99.90;;;;;;4385062;32;20121;-80
2022/10/01 10:10:23;;;;;;;1.12;0.50;;;12.20;99.90;;;;;;4389997;32;20058;-79
2022/10/01 10:12:56;;;;;;;1.65;0.40;;;12.20;99.90;;;;;;4390372;32;20111;-80
2022/10/01 10:15:25;;;;;;;1.80;1.02;;;12.20;99.90;;;;;;4388494;32;20122;-80
2022/10/01 10:17:51;;;;;;;0.40;0.40;;;12.10;99.90;;;;;;4387630;32;20106;-80
2022/10/01 10:20:40;;;;;;;0.50;0.50;;;12.00;99.90;;;;;;4393189;32;20092;-81
2022/10/01 10:23:12;;;;;;;0.40;0.40;;;12.00;99.90;;;;;;4388465;32;20066;-80
2022/10/01 10:25:38;;;;;;;0.90;0.85;;;11.90;99.90;;;;;;4391322;32;20112;-79
2022/10/01 10:28:20;;;;;;;0.32;0.32;;;11.80;99.90;;;;;;4387374;32;20069;-79
2022/10/01 10:30:49;;;;;;;1.45;0.70;;;11.70;99.90;;;;;;4393511;32;20081;-78
2022/10/01 10:33:16;;;;;;;0.50;0.50;;;11.70;99.90;;;;;;4372630;32;20152;-77
2022/10/01 10:35:45;;;;;;;0.50;0.50;;;11.60;99.90;;;;;;4375547;32;20167;-77
2022/10/01 10:38:17;;;;;;;0.30;0.30;;;11.60;99.90;;;;;;4387525;32;20086;-78
2022/10/01 10:40:44;;;;;;;0.47;0.47;;;11.50;99.90;;;;;;4388339;32;20081;-78
2022/10/01 10:43:21;;;;;;;0.85;0.85;;;11.50;99.90;;;;;;4390036;32;20065;-77
2022/10/01 10:45:55;;;;;;;0.40;0.40;;;11.50;99.90;;;;;;4382848;32;20094;-79
2022/10/01 10:48:27;;;;;;;0.30;0.30;;;11.50;99.90;;;;;;4392008;32;20157;-79
2022/10/01 10:51:01;;;;;;;0.52;0.52;;;11.50;99.90;;;;;;4391584;32;20089;-80
2022/10/01 10:53:32;;;;;;;1.65;0.60;;;11.40;99.90;;;;;;4388808;32;20078;-79
2022/10/01 10:56:15;;;;;;;1.75;0.50;;;11.40;99.90;;;;;;4388443;32;20121;-79
2022/10/01 10:58:44;;;;;;;0.40;0.40;;;11.40;99.90;;;;;;4386495;32;20475;-80
2022/10/01 11:01:16;;;;;;;0.30;0.30;;;11.40;99.90;;;;;;4392348;32;20069;-79
2022/10/01 11:03:52;;;;;;;0.30;0.30;;;11.40;99.90;;;;;;4380230;32;20118;-80
2022/10/01 11:06:18;;;;;;;6.10;0.47;;;11.40;99.90;;;;;;4379106;32;20090;-79
2022/10/01 11:08:55;;;;;;;0.40;0.40;;;11.40;99.90;;;;;;4388513;32;20067;-79
2022/10/01 11:11:53;;;;;;;0.50;0.50;;;11.50;99.90;;;;;;4387184;32;20086;-79
2022/10/01 11:14:42;;;;;;;0.32;0.32;;;11.50;99.90;;;;;;4383145;32;20537;-79
2022/10/01 11:17:39;;;;;;;0.70;0.47;;;11.50;99.90;;;;;;4388880;32;20137;-79
2022/10/01 11:20:33;;;;;;;8.20;0.88;;;11.50;99.90;;;;;;4382495;32;20112;-78
2022/10/01 11:23:05;;;;;;;0.40;0.40;;;11.60;99.90;;;;;;4383408;32;20157;-79
2022/10/01 11:25:42;;;;;;;1.95;0.68;;;11.60;99.90;;;;;;4390770;32;20153;-78
2022/10/01 11:28:44;;;;;;;0.55;0.55;;;11.60;99.90;;;;;;4391665;32;20074;-79
2022/10/01 11:31:23;;;;;;;0.25;0.25;;;11.60;99.90;;;;;;4370502;32;20106;-80
2022/10/01 11:34:07;;;;;;;0.40;0.40;;;11.50;99.90;;;;;;4379925;32;20089;-78
2022/10/01 11:36:54;;;;;;;0.75;0.73;;;11.50;99.90;;;;;;4374278;32;20517;-79
2022/10/01 11:39:24;;;;;;;0.47;0.47;;;11.50;99.90;;;;;;4381991;32;20188;-80
2022/10/01 11:41:58;;;;;;;0.60;0.60;;;11.50;99.90;;;;;;4386499;32;20205;-78
2022/10/01 11:44:49;;;;;;;0.35;0.35;;;11.50;99.90;;;;;;4387119;32;20093;-79
2022/10/01 11:47:23;;;;;;;0.30;0.30;;;11.50;99.90;;;;;;4387573;32;20510;-79
2022/10/01 11:50:02;;;;;;;0.50;0.50;;;11.40;99.90;;;;;;4387277;32;20098;-79
2022/10/01 11:52:38;;;;;;;0.65;0.45;;;11.40;99.90;;;;;;4389093;32;20054;-79
2022/10/01 11:59:00;;;;;;;0.30;0.30;;;11.50;99.90;;;;;;4379444;32;20081;-79
2022/10/01 12:01:24;;;;;;;0.55;0.55;;;11.50;99.90;;;;;;4372304;32;20422;-82
2022/10/01 12:03:53;;;;;;;0.30;0.30;;;11.40;99.90;;;;;;4373935;32;20105;-77
2022/10/01 12:06:25;;;;;;;0.32;0.32;;;11.50;99.90;;;;;;4360087;32;20262;-80
2022/10/01 12:08:59;;;;;;;0.30;0.30;;;11.50;99.90;;;;;;4386684;32;20200;-80
2022/10/01 12:11:34;;;;;;;0.40;0.40;;;11.60;99.90;;;;;;4376687;32;20082;-80
2022/10/01 12:14:09;;;;;;;0.40;0.40;;;11.60;99.90;;;;;;4388416;32;20071;-79
2022/10/01 12:16:58;;;;;;;0.30;0.30;;;11.60;99.90;;;;;;4389643;32;21292;-78
2022/10/01 12:19:28;;;;;;;0.75;0.40;;;11.60;99.90;;;;;;4387106;32;20075;-79
2022/10/01 12:22:07;;;;;;;0.50;0.50;;;11.60;99.90;;;;;;4386553;32;20082;-81
2022/10/01 12:24:39;;;;;;;0.30;0.30;;;11.60;99.90;;;;;;4385608;32;20373;-80
2022/10/01 12:27:46;;;;;;;0.43;0.43;;;11.50;99.90;;;;;;4385682;32;20403;-80
2022/10/01 12:30:21;;;;;;;0.80;0.80;;;11.50;99.90;;;;;;4377291;32;20509;-79
2022/10/01 12:33:03;;;;;;;0.30;0.30;;;11.40;99.90;;;;;;4381864;32;20371;-78
2022/10/01 12:36:09;;;;;;;0.50;0.50;;;11.40;99.90;;;;;;4371353;32;20086;-78
2022/10/01 12:38:54;;;;;;;0.40;0.40;;;11.40;99.90;;;;;;4375483;32;20476;-78
2022/10/01 12:41:38;;;;;;;0.50;0.50;;;11.40;99.90;;;;;;4384552;32;20423;-80
2022/10/01 12:44:39;;;;;;;0.40;0.40;;;11.50;99.90;;;;;;4389873;32;20139;-78
2022/10/01 12:47:34;;;;;;;0.68;0.68;;;11.40;99.90;;;;;;4390111;32;20098;-77
2022/10/01 12:50:16;;;;;;;0.20;0.20;;;11.40;99.90;;;;;;4386743;32;20138;-79
2022/10/01 12:52:59;;;;;;;0.62;0.62;;;11.40;99.90;;;;;;4388172;32;20579;-80
2022/10/01 12:55:46;;;;;;;0.45;0.45;;;11.40;99.90;;;;;;4390617;32;20533;-80
2022/10/01 12:58:37;;;;;;;0.55;0.50;;;11.50;99.90;;;;;;4379272;32;20086;-78
2022/10/01 13:01:33;;;;;;;0.40;0.40;;;11.50;99.90;;;;;;4385390;32;20550;-78
2022/10/01 13:04:39;;;;;;;0.57;0.57;;;11.50;99.90;;;;;;4371875;32;20125;-78
2022/10/01 13:07:45;;;;;;;0.50;0.50;;;11.50;99.90;;;;;;4366996;32;20066;-81
2022/10/01 13:10:20;;;;;;;0.30;0.30;;;11.60;99.90;;;;;;4384191;32;20074;-79
2022/10/01 13:13:11;;;;;;;0.30;0.30;;;11.60;99.90;;;;;;4389762;32;20089;-79
2022/10/01 13:15:40;;;;;;;0.43;0.43;;;11.60;99.90;;;;;;4390170;32;20091;-80
2022/10/01 13:18:29;;;;;;;0.47;0.47;;;11.60;99.90;;;;;;4391432;32;20596;-79